Valdez Pioneer Field
PAVD : now visible

Airfield :











YOU CAN JOIN US ON...

 
LOGIN :

Register | Disclaimer

   EN    FR    IT 

 









Legend :    VFR   Marginal VFR   IFR   Intensive IFR   Very Intensive IFR
Visi :
Ceiling :
>= 8 km
>= 3000ft
5 to 8 km
1000 to 3000 ft
1500m to 5 km
500 to 1000 ft
800 to 1500m
200 to 500 ft
< 800m
< 200 ft
Symbols :   Thunderstorms  Fog  Heavy snow  Heavy precipitations  Wind > 20 kt






- Airport Elevation : 121 ft
- IATA code : VDZ


PAVD - Valdez Pioneer Field

CURRENT METAR :
  • 242356Z 25004KT 10SM FEW025 BKN130 OVC150 15/14 A3014 RMK AO2 SLP202 T01500139 10156 20139 53008 $

EXPIRED METARs :
  • 242256Z 25005KT 10SM FEW025 BKN150 OVC200 15/14 A3013 RMK AO2 SLP199 T01500139 $
  • 242156Z 22003KT 10SM FEW020 SCT120 BKN150 14/13 A3012 RMK AO2 SLP196 T01440133 $
  • 242056Z 22003KT 10SM FEW027 SCT120 BKN150 16/14 A3011 RMK AO2 SLP194 T01560139 58002 $
  • 241956Z 00000KT 10SM FEW018 SCT120 BKN150 15/13 A3011 RMK AO2 SLP194 T01500128 $

TAF PAVD
Valid from the 25 at 00:00 until the 26 at 00:00 UTC


242320Z 2500/2524 24005KT P6SM FEW035 SCT050 BKN100
FM250300 25007KT P6SM VCSH SCT025 BKN035 OVC050
FM250800 07005KT P6SM SCT015 OVC025
FM252000 24005KT P6SM SCT025 BKN045
PAZA FIR / North America



MET'MAP, your aeronautical weather chart ! - Copyright ORBIFLY December 2007 - Disclaimer

ORBIFLY MET'MAP TEAM :

Programming & Development : Alexandra Zaïnal
Original concept : Baudouin d'Aumeries
Technical & hardware support : Manuel Goepfert
Assistance : Marc-Olivier Méhu




SOURCES & CREDITS :

   NOAA       Earth
Advisory